• Join FlightAware (Why Join?)
  • Login
  • US Flag 
10:47AM EDT


 

Airport Tracker/Info


-or-


 

Live Flight TrackerFlight Track Log ✈ DAL1117 ✈ 14-Apr-2013 ✈ KDTW - KLAS

Flight Track Log - Related Links

Times and Time Zones

All times are in EDT time to prevent confusion due to time zone crossing. See the DAL1117 flight status page for this flight to view local times or setup timezone preferences in your user account.

Time Position Orientation Groundspeed Altitude Reporting Facility
EDT Latitude Longitude Course Direction KTS MPH feet Rate Location/Type
09:36PM 42.2025 -83.3561 230° Southwest 169 194 1,600  Level FAA TRACON SMA TRACON (SMA)
09:37PM 42.1917 -83.3736 230° Southwest 175 201 2,300 1,680 Climbing FAA TRACON SMA TRACON (SMA)
09:37PM 42.1836 -83.3900 236° Southwest 190 219 2,700 1,500 Climbing FAA TRACON SMA TRACON (SMA)
09:37PM 42.1725 -83.4125 236° Southwest 206 237 3,300 2,100 Climbing FAA TRACON SMA TRACON (SMA)
09:38PM 42.1619 -83.4331 235° Southwest 215 247 4,100 2,700 Climbing FAA TRACON SMA TRACON (SMA)
09:38PM 42.1478 -83.4578 232° Southwest 220 253 5,100 2,700 Climbing FAA TRACON SMA TRACON (SMA)
09:38PM 42.1369 -83.4750 230° Southwest 225 259 5,900 2,460 Climbing FAA TRACON SMA TRACON (SMA)
09:39PM 42.1247 -83.5089 244° Southwest 242 278 6,800 2,520 Climbing Cleveland Center
09:39PM 42.1322 -83.5328 293° West 248 285 7,600 2,460 Climbing FAA TRACON SMA TRACON (SMA)
09:39PM 42.1456 -83.5581 305° West 262 302 8,400 2,520 Climbing FAA TRACON SMA TRACON (SMA)
09:40PM 42.1625 -83.5897 306° West 269 310 9,300 2,700 Climbing FAA TRACON SMA TRACON (SMA)
09:40PM 42.1744 -83.6181 300° West 282 325 10,200 2,340 Climbing FAA TRACON SMA TRACON (SMA)
09:40PM 42.1867 -83.6456 301° West 278 320 10,900 1,620 Climbing FAA TRACON SMA TRACON (SMA)
09:41PM 42.2031 -83.6828 301° West 296 341 11,400 1,920 Climbing FAA TRACON SMA TRACON (SMA)
09:41PM 42.2203 -83.7214 301° West 307 353 12,300 2,100 Climbing FAA TRACON SMA TRACON (SMA)
09:41PM 42.2308 -83.7453 301° West 317 365 12,700 1,980 Climbing FAA TRACON SMA TRACON (SMA)
09:42PM 42.2453 -83.7778 301° West 322 371 13,500 2,220 Climbing FAA TRACON SMA TRACON (SMA)
09:42PM 42.2611 -83.8153 300° West 327 376 14,200 2,100 Climbing FAA TRACON SMA TRACON (SMA)
09:42PM 42.2781 -83.8519 302° West 333 383 14,900 2,160 Climbing FAA TRACON SMA TRACON (SMA)
09:43PM 42.2972 -83.8950 301° West 342 394 15,700 2,220 Climbing FAA TRACON SMA TRACON (SMA)
09:43PM 42.3097 -83.9256 299° West 344 396 16,400 2,100 Climbing FAA TRACON SMA TRACON (SMA)
09:43PM 42.3278 -83.9650 302° West 350 403 17,100 2,100 Climbing FAA TRACON SMA TRACON (SMA)
09:44PM 42.3472 -84.0092 301° West 354 407 17,800 2,100 Climbing FAA TRACON SMA TRACON (SMA)
09:44PM 42.3606 -84.0406 300° West 355 409 18,500 1,740 Climbing FAA TRACON SMA TRACON (SMA)
09:44PM 42.3783 -84.0808 301° West 359 413 19,000 1,620 Climbing FAA TRACON SMA TRACON (SMA)
09:45PM 42.3942 -84.1172 301° West 362 417 19,600 1,800 Climbing FAA TRACON SMA TRACON (SMA)
09:45PM 42.4125 -84.1600 300° West 364 419 20,200 1,800 Climbing FAA TRACON SMA TRACON (SMA)
09:45PM 42.4261 -84.2031 293° West 367 422 20,800 1,680 Climbing FAA TRACON SMA TRACON (SMA)
09:46PM 42.4289 -84.2456 275° West 371 427 21,300 1,560 Climbing FAA TRACON SMA TRACON (SMA)
09:46PM 42.4294 -84.2967 271° West 366 421 21,900 1,800 Climbing FAA TRACON SMA TRACON (SMA)
09:46PM 42.4319 -84.3422 274° West 372 428 22,500 1,800 Climbing FAA TRACON SMA TRACON (SMA)
09:47PM 42.4333 -84.3967 272° West 375 432 23,100 1,500 Climbing FAA TRACON SMA TRACON (SMA)
09:47PM 42.4331 -84.4367 269° West 376 433 23,500 1,200 Climbing FAA TRACON SMA TRACON (SMA)
09:47PM 42.4356 -84.4847 274° West 381 438 23,900 720 Climbing FAA TRACON SMA TRACON (SMA)
09:48PM 42.4361 -84.5069 272° West 381 438 24,000 120 Climbing FAA TRACON SMA TRACON (SMA)
09:48PM 42.4361 -84.5069 289° West 381 438 24,000  Level FAA TRACON SMA TRACON (SMA)
09:48PM 42.4364 -84.6461 270° West 387 445 24,000  Level Cleveland Center
09:49PM 42.4403 -84.7731 272° West 387 445 24,000 360 Level Cleveland Center
09:50PM 42.4456 -84.9175 273° West 390 449 24,800 660 Climbing Chicago Center
09:51PM 42.4492 -85.0689 272° West 399 459 25,400 720 Climbing Chicago Center
09:52PM 42.4525 -85.2281 272° West 418 481 26,400 1,020 Climbing Chicago Center
09:53PM 42.4561 -85.4228 272° West 430 495 27,600 1,020 Climbing Chicago Center
09:54PM 42.4583 -85.5897 271° West 438 504 28,500 960 Climbing Chicago Center
09:55PM 42.4614 -85.7556 271° West 442 509 29,600 1,200 Climbing Chicago Center
09:56PM 42.4628 -85.9239 271° West 445 512 31,000 1,140 Climbing Chicago Center
09:57PM 42.4650 -86.0867 271° West 432 497 32,000 960 Climbing Chicago Center
09:59PM 42.4478 -86.2461 262° West 427 491 33,000 900 Climbing Chicago Center
10:00PM 42.4281 -86.4022 260° West 423 487 33,900 480 Climbing Chicago Center
10:01PM 42.4081 -86.5583 260° West 420 483 34,000  Climbing Chicago Center
10:02PM 42.3903 -86.7161 261° West 418 481 34,000  Level Chicago Center
10:03PM 42.3714 -86.8672 260° West 413 475 34,000  Level Chicago Center
10:04PM 42.3469 -87.0478 260° West 411 473 34,000  Level Chicago Center
10:05PM 42.3256 -87.1928 259° West 402 463 34,000  Level Chicago Center
10:06PM 42.3056 -87.3436 260° West 409 471 34,000  Level Chicago Center
10:07PM 42.2856 -87.4922 260° West 407 468 34,000  Level Chicago Center
10:08PM 42.2650 -87.6406 259° West 406 467 34,000  Level Chicago Center
10:09PM 42.2436 -87.7925 259° West 412 474 34,000  Level Chicago Center
10:10PM 42.2178 -87.9717 259° West 412 474 34,000  Level Chicago Center
10:11PM 42.1922 -88.1211 257° West 412 474 34,000  Level Chicago Center
10:12PM 42.1644 -88.2714 256° West 416 479 34,000  Level Chicago Center
10:13PM 42.1381 -88.4219 257° West 418 481 34,000  Level Chicago Center
10:14PM 42.1119 -88.5697 257° West 414 476 34,000  Level Chicago Center
10:15PM 42.0844 -88.7189 256° West 414 476 34,100  Climbing Chicago Center
10:16PM 42.0569 -88.8703 256° West 417 480 34,000 -60 Descending Chicago Center
10:17PM 42.0244 -89.0450 256° West 408 470 34,000  Level Chicago Center
10:18PM 41.9994 -89.1911 257° West 406 467 34,000  Level Chicago Center
10:19PM 41.9828 -89.3414 262° West 407 468 34,000  Level Chicago Center
10:20PM 41.9658 -89.4883 261° West 403 464 34,000  Level Chicago Center
10:21PM 41.9472 -89.6350 260° West 402 463 34,000  Level Chicago Center
10:22PM 41.9297 -89.7828 261° West 405 466 34,000  Level Chicago Center
10:23PM 41.9119 -89.9350 261° West 405 466 34,000 60 Level Chicago Center
10:24PM 41.8942 -90.0825 261° West 403 464 34,200 420 Climbing Chicago Center
10:25PM 41.8756 -90.2297 260° West 402 463 34,900 540 Climbing Chicago Center
10:26PM 41.8572 -90.3789 261° West 406 467 35,400 540 Climbing Chicago Center
10:27PM 41.8336 -90.5572 260° West 407 468 36,000 240 Climbing Chicago Center
10:28PM 41.8139 -90.7069 260° West 411 473 36,000  Level Chicago Center
10:29PM 41.7936 -90.8533 260° West 402 463 36,000  Level Chicago Center
10:30PM 41.7744 -91.0014 260° West 405 466 36,000  Level Chicago Center
10:31PM 41.7553 -91.1492 260° West 406 467 36,000  Level Chicago Center
10:32PM 41.7344 -91.2969 259° West 406 467 36,000  Level Chicago Center
10:33PM 41.7142 -91.4433 260° West 403 464 36,000  Level Chicago Center
10:34PM 41.6942 -91.5878 260° West 399 459 36,000  Level Chicago Center
10:35PM 41.6742 -91.7336 260° West 399 459 36,000  Level Chicago Center
10:36PM 41.6542 -91.8772 259° West 397 457 36,000  Level Chicago Center
10:37PM 41.6294 -92.0500 259° West 396 456 36,000  Level Chicago Center
10:38PM 41.6081 -92.1953 259° West 398 458 36,000  Level Chicago Center
10:39PM 41.5878 -92.3378 259° West 394 453 36,000  Level Chicago Center
10:40PM 41.5678 -92.4719 259° West 375 432 36,000  Level Chicago Center
10:41PM 41.5478 -92.6097 259° West 377 434 36,000  Level Chicago Center
10:42PM 41.5236 -92.7569 258° West 378 435 36,000  Level Chicago Center
10:43PM 41.5039 -92.8939 259° West 380 437 36,000  Level Chicago Center
10:44PM 41.4836 -93.0342 259° West 389 448 36,000  Level Chicago Center
10:45PM 41.4617 -93.1717 258° West 385 443 36,000  Level Chicago Center
10:47PM 41.4369 -93.3375 259° West 381 438 36,000  Level Minneapolis Center
10:48PM 41.4147 -93.4744 258° West 382 440 36,000  Level Minneapolis Center
10:49PM 41.3953 -93.6064 259° West 373 429 36,000  Level Minneapolis Center
10:50PM 41.3739 -93.7431 258° West 377 434 36,000  Level Minneapolis Center
10:51PM 41.3469 -93.9083 258° West 384 442 36,000  Level Minneapolis Center
10:52PM 41.3247 -94.0431 258° West 379 436 36,000  Level Minneapolis Center
10:53PM 41.3033 -94.1772 258° West 376 433 36,000  Level Minneapolis Center
10:54PM 41.2825 -94.3031 258° West 375 432 36,000 -60 Level Minneapolis Center
10:55PM 41.2606 -94.4372 258° West 372 428 35,900  Descending Minneapolis Center
10:56PM 41.2381 -94.5739 258° West 376 433 36,000  Climbing Minneapolis Center
10:57PM 41.2106 -94.7394 258° West 380 437 36,000  Level Minneapolis Center
10:58PM 41.1869 -94.8781 257° West 383 441 36,000  Level Minneapolis Center
10:59PM 41.1639 -95.0156 257° West 382 440 36,000  Level Minneapolis Center
11:00PM 41.1400 -95.1497 257° West 378 435 36,000  Level Minneapolis Center
11:01PM 41.1161 -95.2836 257° West 375 432 36,000  Level Minneapolis Center
11:02PM 41.0928 -95.4206 257° West 377 434 36,000  Level Minneapolis Center
11:03PM 41.0694 -95.5528 257° West 371 427 36,000  Level Minneapolis Center
11:04PM 41.0456 -95.6839 256° West 366 421 36,000  Level Minneapolis Center
11:05PM 41.0228 -95.8147 257° West 363 418 36,000  Level Minneapolis Center
11:06PM 40.9986 -95.9475 256° West 366 421 36,000  Level Minneapolis Center
11:07PM 40.9744 -96.0786 256° West 366 421 36,000  Level Minneapolis Center
11:08PM 40.9506 -96.2097 256° West 364 419 36,000  Level Minneapolis Center
11:09PM 40.9261 -96.3408 256° West 365 420 36,000  Level Minneapolis Center
11:10PM 40.8969 -96.5000 256° West 368 423 36,000  Level Minneapolis Center
11:11PM 40.8719 -96.6325 256° West 371 427 36,000  Level Minneapolis Center
11:12PM 40.8483 -96.7639 257° West 368 423 36,000  Level Minneapolis Center
11:13PM 40.8228 -96.8961 256° West 370 426 36,000  Level Minneapolis Center
11:14PM 40.7972 -97.0281 256° West 371 427 36,000  Level Minneapolis Center
11:15PM 40.7733 -97.1589 256° West 368 423 36,000  Level Minneapolis Center
11:16PM 40.7469 -97.2875 255° West 365 420 36,000  Level Minneapolis Center
11:17PM 40.7214 -97.4219 256° West 362 417 36,000  Level Minneapolis Center
11:18PM 40.6967 -97.5503 256° West 361 415 36,000  Level Minneapolis Center
11:19PM 40.6714 -97.6794 256° West 363 418 36,000  Level Minneapolis Center
11:20PM 40.6456 -97.8100 255° West 366 421 36,000  Level Minneapolis Center
11:21PM 40.6194 -97.9397 255° West 366 421 36,000  Level Minneapolis Center
11:22PM 40.5931 -98.0703 255° West 367 422 36,000  Level Minneapolis Center
11:23PM 40.5675 -98.2017 256° West 369 425 36,000  Level Minneapolis Center
11:24PM 40.5414 -98.3339 255° West 371 427 36,000  Level Minneapolis Center
11:25PM 40.5136 -98.4636 254° West 369 425 36,000  Level Minneapolis Center
11:26PM 40.4881 -98.5922 255° West 365 420 36,000  Level Minneapolis Center
11:27PM 40.4575 -98.7394 255° West 352 405 36,000  Level Minneapolis Center
11:28PM 40.4319 -98.8594 254° West 343 395 36,000  Level Minneapolis Center
11:29PM 40.4069 -98.9800 255° West 342 394 36,000  Level Minneapolis Center
11:30PM 40.3817 -99.1006 255° West 342 394 36,100  Climbing Minneapolis Center
11:31PM 40.3661 -99.1733 254° West 343 395 36,000 -60 Descending Denver Center
11:32PM 40.3417 -99.2911 255° West 335 386 36,000  Level Denver Center
11:33PM 40.3164 -99.4083 254° West 334 384 36,000  Level Denver Center
11:34PM 40.2914 -99.5228 254° West 328 377 36,000  Level Denver Center
11:35PM 40.2678 -99.6375 255° West 326 375 36,000  Level Denver Center
11:36PM 40.2372 -99.7758 254° West 329 379 36,000  Level Denver Center
11:37PM 40.2117 -99.8906 254° West 328 377 36,000  Level Denver Center
11:38PM 40.1867 -100.0056 254° West 340 391 36,000  Level Denver Center
11:39PM 40.1617 -100.1178 254° West 338 389 36,000  Level Denver Center
11:40PM 40.1331 -100.2467 254° West 331 381 36,000  Level Denver Center
11:41PM 40.1089 -100.3589 254° West 334 384 36,000  Level Denver Center
11:42PM 40.0839 -100.4692 254° West 331 381 36,000  Level Denver Center
11:43PM 40.0544 -100.5992 254° West 334 384 36,000  Level Denver Center
11:44PM 40.0286 -100.7108 253° West 334 384 36,000  Level Denver Center
11:45PM 39.9992 -100.8403 254° West 333 383 36,000  Level Denver Center
11:46PM 39.9739 -100.9500 253° West 331 381 36,000  Level Denver Center
11:47PM 39.9486 -101.0594 253° West 330 380 36,000  Level Denver Center
11:48PM 39.9186 -101.1911 253° West 339 390 36,000  Level Denver Center
11:49PM 39.8908 -101.3072 253° West 348 400 36,000  Level Denver Center
11:50PM 39.8647 -101.4225 254° West 347 399 36,000  Level Denver Center
11:51PM 39.8331 -101.5564 253° West 344 396 36,000  Level Denver Center
11:53PM 39.8058 -101.6706 253° West 345 397 36,000  Level Denver Center
11:54PM 39.7786 -101.7850 253° West 346 398 36,000  Level Denver Center
11:55PM 39.7469 -101.9183 253° West 345 397 36,000  Level Denver Center
11:56PM 39.7189 -102.0339 253° West 348 400 36,000  Level Denver Center
11:57PM 39.6903 -102.1503 252° West 353 406 36,000  Level Denver Center
11:58PM 39.6583 -102.2844 253° West 349 402 36,000  Level Denver Center
11:59PM 39.6300 -102.3997 252° West 350 403 36,000  Level Denver Center
12:00AM 39.5972 -102.5342 252° West 352 405 36,000  Level Denver Center
12:01AM 39.5672 -102.6567 252° West 354 407 36,000  Level Denver Center
12:02AM 39.5369 -102.7789 252° West 353 406 36,000  Level Denver Center
12:03AM 39.5069 -102.9017 252° West 354 407 36,000  Level Denver Center
12:04AM 39.4758 -103.0253 252° West 357 411 36,000  Level Denver Center
12:05AM 39.4447 -103.1481 252° West 355 409 36,000  Level Denver Center
12:06AM 39.4133 -103.2719 252° West 360 414 36,000  Level Denver Center
12:07AM 39.3825 -103.3947 252° West 357 411 36,000  Level Denver Center
12:08AM 39.3508 -103.5167 251° West 356 410 36,000  Level Denver Center
12:09AM 39.3192 -103.6392 252° West 356 410 36,000  Level Denver Center
12:10AM 39.2881 -103.7631 252° West 359 413 36,000  Level Denver Center
12:11AM 39.2553 -103.8864 251° West 359 413 36,000  Level Denver Center
12:12AM 39.2231 -104.0103 251° West 361 415 36,000  Level Denver Center
12:13AM 39.1897 -104.1358 251° West 364 419 36,000  Level Denver Center
12:14AM 39.1517 -104.2833 252° West 367 422 36,000  Level Denver Center
12:15AM 39.1186 -104.4075 251° West 361 415 36,000  Level Denver Center
12:16AM 39.0847 -104.5367 251° West 375 432 36,000  Level Denver Center
12:17AM 39.0500 -104.6625 250° West 370 426 36,000  Level Denver Center
12:18AM 39.0167 -104.7886 251° West 368 423 36,000  Level Denver Center
12:19AM 38.9836 -104.9128 251° West 364 419 36,000  Level Denver Center
12:20AM 38.9500 -105.0372 251° West 365 420 36,000  Level Denver Center
12:21AM 38.9147 -105.1614 250° West 366 421 36,000  Level Denver Center
12:22AM 38.8819 -105.2867 251° West 367 422 36,000  Level Denver Center
12:23AM 38.8467 -105.4128 250° West 371 427 36,000  Level Denver Center
12:24AM 38.8114 -105.5378 250° West 370 426 36,000  Level Denver Center
12:25AM 38.7778 -105.6633 251° West 370 426 36,000  Level Denver Center
12:26AM 38.7419 -105.7897 250° West 373 429 36,000  Level Denver Center
12:27AM 38.7056 -105.9181 250° West 379 436 36,000  Level Denver Center
12:28AM 38.6689 -106.0453 250° West 378 435 36,000  Level Denver Center
12:29AM 38.6303 -106.1864 251° West 378 435 36,000  Level Denver Center
12:30AM 38.5928 -106.3125 249° West 378 435 36,000  Level Denver Center
12:31AM 38.5572 -106.4383 250° West 375 432 36,000  Level Denver Center
12:32AM 38.5222 -106.5633 250° West 374 430 36,000  Level Denver Center
12:33AM 38.4928 -106.6631 249° West 372 428 36,000  Level Denver Center
12:34AM 38.4497 -106.8119 250° West 372 428 36,000  Level Denver Center
12:36AM 38.4122 -106.9367 249° West 375 432 36,000  Level Denver Center
12:37AM 38.3689 -107.0878 250° West 376 433 36,000  Level Denver Center
12:38AM 38.3322 -107.2103 249° West 370 426 36,000  Level Denver Center
12:39AM 38.2922 -107.3472 250° West 370 426 36,000  Level Denver Center
12:40AM 38.2572 -107.4650 249° West 370 426 36,000  Level Denver Center
12:41AM 38.2233 -107.5792 249° West 363 418 36,000  Level Denver Center
12:42AM 38.1825 -107.7136 249° West 365 420 36,000  Level Denver Center
12:43AM 38.1422 -107.8481 249° West 364 419 36,000  Level Denver Center
12:44AM 38.1006 -107.9831 249° West 366 421 36,000  Level Denver Center
12:45AM 38.0672 -108.0964 250° West 366 421 36,000  Level Denver Center
12:46AM 38.0253 -108.2303 248° West 367 422 36,000  Level Denver Center
12:47AM 37.9900 -108.3475 249° West 369 425 36,000  Level Denver Center
12:48AM 37.9536 -108.4642 248° West 372 428 36,000  Level Denver Center
12:49AM 37.9119 -108.6003 249° West 371 427 36,000  Level Denver Center
12:50AM 37.8761 -108.7150 248° West 369 425 36,000  Level Denver Center
12:51AM 37.8397 -108.8311 248° West 371 427 36,000  Level Denver Center
12:52AM 37.7992 -108.9661 249° West 369 425 36,000  Level Denver Center
12:53AM 37.7697 -109.0867 253° West 373 429 36,000  Level Denver Center
12:54AM 37.7356 -109.2242 253° West 370 426 36,000  Level Denver Center
12:55AM 37.7064 -109.3433 253° West 372 428 36,000  Level Denver Center
12:56AM 37.6764 -109.4619 252° West 372 428 36,000  Level Denver Center
12:57AM 37.6411 -109.6014 252° West 373 429 36,000  Level Denver Center
12:58AM 37.6125 -109.7192 253° West 369 425 36,000  Level Denver Center
12:59AM 37.5817 -109.8386 252° West 374 430 36,000  Level Denver Center
01:00AM 37.5458 -109.9806 252° West 380 437 36,000  Level Denver Center
01:01AM 37.5147 -110.1003 252° West 377 434 36,000  Level Denver Center
01:02AM 37.4794 -110.2339 252° West 378 435 36,000  Level Denver Center
01:03AM 37.4467 -110.3589 252° West 378 435 36,000  Level Denver Center
01:04AM 37.4144 -110.4858 252° West 381 438 36,000  Level Denver Center
01:05AM 37.3819 -110.6119 252° West 382 440 36,000  Level Denver Center
01:06AM 37.3483 -110.7381 252° West 381 438 36,000  Level Denver Center
01:07AM 37.3144 -110.8636 251° West 380 437 36,000  Level Denver Center
01:08AM 37.2822 -110.9858 252° West 371 427 36,000  Level Denver Center
01:09AM 37.2500 -111.1075 252° West 368 423 36,000 -180 Level Denver Center
01:10AM 37.2156 -111.2353 251° West 382 440 35,700 -600 Descending Denver Center
01:11AM 37.1828 -111.3569 251° West 372 428 34,900 -900 Descending Denver Center
01:12AM 37.1494 -111.4797 251° West 371 427 33,900 -1,020 Descending Denver Center
01:13AM 37.1164 -111.6072 252° West 380 437 32,900 -960 Descending Denver Center
01:14AM 37.0808 -111.7389 251° West 392 451 32,000 -480 Descending Denver Center
01:15AM 37.0431 -111.8708 250° West 400 460 32,000  Level Denver Center
01:16AM 37.0078 -111.9997 251° West 395 455 32,000  Level Denver Center
01:17AM 36.9700 -112.1331 251° West 400 460 32,100 60 Climbing Denver Center
01:18AM 36.9539 -112.1881 250° West 409 471 32,100 -480 Level Los Angeles Center
01:19AM 36.9169 -112.3214 251° West 407 468 31,500 -840 Descending Los Angeles Center
01:20AM 36.8853 -112.4461 252° West 381 438 30,400 -1,020 Descending Los Angeles Center
01:21AM 36.8767 -112.5600 265° West 336 387 29,500 -900 Descending Los Angeles Center
01:22AM 36.8711 -112.6706 266° West 322 371 28,600 -960 Descending Los Angeles Center
01:23AM 36.8642 -112.7806 266° West 319 367 27,600 -1,020 Descending Los Angeles Center
01:24AM 36.8578 -112.8889 266° West 315 362 26,600 -1,020 Descending Los Angeles Center
01:25AM 36.8519 -112.9933 266° West 305 351 25,600 -1,140 Descending Los Angeles Center
01:26AM 36.8842 -113.1044 290° West 303 349 24,400 -840 Descending Los Angeles Center
01:27AM 36.9394 -113.1811 312° West 304 350 24,000 -240 Descending Los Angeles Center
01:28AM 36.9167 -113.2783 254° West 304 350 24,000  Level Los Angeles Center
01:29AM 36.8764 -113.3733 242° Southwest 310 357 24,000  Level Los Angeles Center
01:30AM 36.8372 -113.4678 243° Southwest 307 353 24,000  Level Los Angeles Center
01:31AM 36.7967 -113.5631 242° Southwest 311 358 24,000  Level Los Angeles Center
01:32AM 36.7575 -113.6575 243° Southwest 308 354 24,000  Level Los Angeles Center
01:33AM 36.7058 -113.7753 241° Southwest 319 367 24,000 -360 Level Los Angeles Center
01:34AM 36.6575 -113.8914 243° Southwest 365 420 23,300 -840 Descending Los Angeles Center
01:35AM 36.6083 -114.0061 242° Southwest 375 432 22,300 -2,040 Descending Los Angeles Center
01:36AM 36.5497 -114.1414 242° Southwest 373 429 19,200 -2,880 Descending Los Angeles Center
01:37AM 36.5069 -114.2317 239° Southwest 367 422 16,500 -2,880 Descending Los Angeles Center
01:38AM 36.4481 -114.3600 240° Southwest 360 414 13,300 -2,760 Descending Los Angeles Center
01:39AM 36.4344 -114.3994 247° West 354 407 12,800 -1,140 Descending Los Angeles Center
01:39AM 36.4014 -114.4606 236° Southwest 344 396 12,200 -720 Descending Los Angeles Center
01:40AM 36.3819 -114.4842 224° Southwest 312 359 12,100 -240 Descending Los Angeles Center
01:40AM 36.3242 -114.4983 191° South 316 364 12,000 -720 Descending Los Angeles Center
01:41AM 36.2964 -114.5078 195° South 307 353 11,400 -1,260 Descending Los Angeles Center
01:41AM 36.2475 -114.5358 205° Southwest 306 352 10,700 -1,200 Descending Los Angeles Center
01:42AM 36.2306 -114.5622 231° Southwest 294 338 10,200 -1,020 Descending Los Angeles Center
01:42AM 36.2028 -114.5928 222° Southwest 294 338 9,700 -1,140 Descending Los Angeles Center
01:43AM 36.1772 -114.6336 232° Southwest 284 327 9,100 -1,140 Descending Los Angeles Center
01:43AM 36.1603 -114.6853 248° West 266 306 8,600 -840 Descending Los Angeles Center
01:44AM 36.1578 -114.7122 263° West 234 269 8,300 -600 Descending Los Angeles Center
01:44AM 36.1467 -114.7592 254° West 227 261 8,000 -540 Descending Los Angeles Center
01:45AM 36.1408 -114.8283 264° West 207 238 7,400 -1,080 Descending Los Angeles Center
01:46AM 36.1414 -114.8536 272° West 182 209 6,600 -1,320 Descending Los Angeles Center
01:46AM 36.1364 -114.8903 260° West 185 213 6,100 -360 Descending Los Angeles Center
01:48AM 36.1325 -114.9528 266° West 183 211 6,000 -360 Descending Los Angeles Center
01:48AM 36.1347 -114.9811 276° West 187 215 5,700 -1,020 Descending Los Angeles Center
01:49AM 36.1350 -115.0169 271° West 185 213 5,000 -1,200 Descending Los Angeles Center
01:49AM 36.1375 -115.0442 276° West 178 205 4,500 -1,200 Descending Los Angeles Center
01:50AM 36.1406 -115.0767 277° West 181 208 3,800 -1,140 Descending Los Angeles Center
01:50AM 36.1356 -115.1033 257° West 146 168 3,400 -900 Descending Los Angeles Center
01:51AM 36.1297 -115.1314 256° West 148 170 2,900 -720 Descending Los Angeles Center
01:52AM 36.0983 -115.1531 209° Southwest 133 153 2,200 -720 Descending Los Angeles Center
01:54AM 36.0801 -115.1523 219° Southwest  Level Estimated